Time,TemperatureF,DewpointF,PressureIn,WindDirection,WindDirectionDegrees,WindSpeedMPH,WindSpeedGustMPH,Humidity,HourlyPrecipIn,Conditions,Clouds,dailyrainin,SoftwareType,DateUTC
2013-02-09 11:00:00,11.6,8.0,29.93,South,170,0.0,0.0,85,0.00,,,0.00,Wunderground v.1.15,2013-02-09 16:00:00,
2013-02-09 11:05:00,11.9,8.5,29.93,South,170,0.0,0.0,86,0.00,,,0.00,Wunderground v.1.15,2013-02-09 16:05:00,
2013-02-09 11:10:00,11.9,8.0,29.93,SSE,158,0.0,0.0,84,0.00,,,0.00,Wunderground v.1.15,2013-02-09 16:10:00,
2013-02-09 11:20:00,12.1,8.5,29.93,SE,131,0.0,0.0,85,0.00,,,0.00,Wunderground v.1.15,2013-02-09 16:20:00,
2013-02-09 11:25:00,12.6,8.4,29.93,WNW,299,0.0,0.0,83,0.00,,,0.00,Wunderground v.1.15,2013-02-09 16:25:00,
2013-02-09 11:30:00,12.8,8.3,29.93,SSE,151,0.0,0.0,82,0.00,,,0.00,Wunderground v.1.15,2013-02-09 16:30:00,
2013-02-09 11:40:00,12.6,7.9,29.94,East,92,0.0,0.0,81,0.00,,,0.00,Wunderground v.1.15,2013-02-09 16:40:00,
2013-02-09 11:45:00,12.6,7.9,29.93,SW,225,0.0,0.0,81,0.00,,,0.00,Wunderground v.1.15,2013-02-09 16:45:00,
2013-02-09 11:55:00,12.4,7.7,29.93,ESE,117,1.0,5.0,81,0.00,,,0.00,Wunderground v.1.15,2013-02-09 16:55:00,
2013-02-09 12:00:00,12.5,7.8,29.93,East,100,3.0,3.0,81,0.00,,,0.00,Wunderground v.1.15,2013-02-09 17:00:00,
2013-02-09 12:05:00,12.6,7.6,29.93,SW,215,3.0,3.0,80,0.00,,,0.00,Wunderground v.1.15,2013-02-09 17:05:00,
2013-02-09 12:15:00,12.9,7.9,29.93,South,173,4.0,5.0,80,0.00,,,0.00,Wunderground v.1.15,2013-02-09 17:15:00,
2013-02-09 12:20:00,13.0,8.0,29.92,SE,139,4.0,4.0,80,0.00,,,0.00,Wunderground v.1.15,2013-02-09 17:20:00,
2013-02-09 12:30:00,12.9,7.6,29.92,WSW,256,5.0,5.0,79,0.00,,,0.00,Wunderground v.1.15,2013-02-09 17:30:00,
2013-02-09 12:35:00,12.6,7.9,29.93,SE,139,5.0,14.0,81,0.00,,,0.00,Wunderground v.1.15,2013-02-09 17:35:00,
2013-02-09 12:45:00,12.4,8.0,29.91,West,277,5.0,9.0,82,0.00,,,0.00,Wunderground v.1.15,2013-02-09 17:45:00,
2013-02-09 12:50:00,12.6,8.1,29.93,SSW,212,7.0,7.0,82,0.00,,,0.00,Wunderground v.1.15,2013-02-09 17:50:00,
2013-02-09 12:55:00,12.7,7.7,29.92,SSW,200,7.0,7.0,80,0.00,,,0.00,Wunderground v.1.15,2013-02-09 17:55:00,
2013-02-09 13:05:00,12.8,7.5,29.92,South,181,6.0,6.0,79,0.00,,,0.00,Wunderground v.1.15,2013-02-09 18:05:00,
2013-02-09 13:10:00,12.8,7.8,29.92,SW,218,7.0,7.0,80,0.00,,,0.00,Wunderground v.1.15,2013-02-09 18:10:00,
2013-02-09 13:20:00,12.9,7.9,29.93,SE,127,7.0,11.0,80,0.00,,,0.00,Wunderground v.1.15,2013-02-09 18:20:00,
2013-02-09 13:25:00,12.9,7.6,29.93,SSW,211,6.0,11.0,79,0.00,,,0.00,Wunderground v.1.15,2013-02-09 18:25:00,
2013-02-09 13:35:00,13.0,7.7,29.93,SSE,167,6.0,7.0,79,0.00,,,0.00,Wunderground v.1.15,2013-02-09 18:35:00,
2013-02-09 13:40:00,13.2,7.3,29.93,South,176,6.0,8.0,77,0.00,,,0.00,Wunderground v.1.15,2013-02-09 18:40:00,
2013-02-09 13:50:00,13.7,7.2,29.94,WSW,242,5.0,5.0,75,0.00,,,0.00,Wunderground v.1.15,2013-02-09 18:50:00,
2013-02-09 13:55:00,14.0,7.2,29.94,SSW,201,3.0,5.0,74,0.00,,,0.00,Wunderground v.1.15,2013-02-09 18:55:00,
2013-02-09 14:00:00,14.3,7.2,29.94,SE,127,3.0,3.0,73,0.00,,,0.00,Wunderground v.1.15,2013-02-09 19:00:00,
2013-02-09 14:10:00,14.0,6.9,29.95,SW,221,5.0,5.0,73,0.00,,,0.00,Wunderground v.1.15,2013-02-09 19:10:00,
2013-02-09 14:15:00,14.0,6.9,29.95,East,87,4.0,5.0,73,0.00,,,0.00,Wunderground v.1.15,2013-02-09 19:15:00,
2013-02-09 14:25:00,14.2,7.1,29.96,WNW,284,3.0,5.0,73,0.00,,,0.00,Wunderground v.1.15,2013-02-09 19:25:00,
2013-02-09 14:30:00,14.5,7.1,29.97,NNW,327,3.0,3.0,72,0.00,,,0.00,Wunderground v.1.15,2013-02-09 19:30:00,
2013-02-09 14:40:00,14.1,9.3,29.98,West,267,2.0,4.0,81,0.00,,,0.00,Wunderground v.1.15,2013-02-09 19:40:00,
2013-02-09 14:45:00,13.8,9.3,29.98,SSW,204,2.0,4.0,82,0.00,,,0.00,Wunderground v.1.15,2013-02-09 19:45:00,
2013-02-09 14:50:00,13.7,8.7,29.99,SSW,210,3.0,3.0,80,0.00,,,0.00,Wunderground v.1.15,2013-02-09 19:50:00,
2013-02-09 15:00:00,13.6,8.6,29.99,WSW,252,3.0,3.0,80,0.00,,,0.00,Wunderground v.1.15,2013-02-09 20:00:00,
2013-02-09 15:05:00,13.4,8.7,29.99,West,278,4.0,6.0,81,0.00,,,0.00,Wunderground v.1.15,2013-02-09 20:05:00,
2013-02-09 15:15:00,13.3,8.3,29.99,SE,128,3.0,4.0,80,0.00,,,0.00,Wunderground v.1.15,2013-02-09 20:15:00,
2013-02-09 15:20:00,13.4,8.4,29.99,ESE,115,3.0,3.0,80,0.00,,,0.00,Wunderground v.1.15,2013-02-09 20:20:00,
2013-02-09 15:30:00,13.6,8.6,29.99,South,179,3.0,6.0,80,0.00,,,0.00,Wunderground v.1.15,2013-02-09 20:30:00,
2013-02-09 15:35:00,13.7,8.1,30.00,South,179,4.0,6.0,78,0.00,,,0.00,Wunderground v.1.15,2013-02-09 20:35:00,
2013-02-09 15:45:00,13.8,8.2,30.00,South,188,4.0,4.0,78,0.00,,,0.00,Wunderground v.1.15,2013-02-09 20:45:00,
2013-02-09 15:50:00,13.5,8.2,30.00,WSW,242,5.0,5.0,79,0.00,,,0.00,Wunderground v.1.15,2013-02-09 20:50:00,
2013-02-09 15:55:00,13.6,8.9,30.01,West,276,5.0,5.0,81,0.00,,,0.00,Wunderground v.1.15,2013-02-09 20:55:00,
2013-02-09 16:05:00,13.6,8.9,30.01,WNW,300,4.0,5.0,81,0.00,,,0.00,Wunderground v.1.15,2013-02-09 21:05:00,
2013-02-09 16:10:00,13.7,8.7,30.02,SW,222,3.0,6.0,80,0.00,,,0.00,Wunderground v.1.15,2013-02-09 21:10:00,
2013-02-09 16:20:00,13.7,8.7,30.03,South,180,3.0,3.0,80,0.00,,,0.00,Wunderground v.1.15,2013-02-09 21:20:00,
2013-02-09 16:25:00,13.7,8.7,30.02,SSE,158,3.0,10.0,80,0.00,,,0.00,Wunderground v.1.15,2013-02-09 21:25:00,
2013-02-09 16:35:00,13.7,8.4,30.03,SSE,159,3.0,4.0,79,0.00,,,0.00,Wunderground v.1.15,2013-02-09 21:35:00,
2013-02-09 16:40:00,13.8,8.5,30.03,West,274,2.0,2.0,79,0.00,,,0.00,Wunderground v.1.15,2013-02-09 21:40:00,
2013-02-09 16:50:00,13.6,7.7,30.03,SSE,152,4.0,4.0,77,0.00,,,0.00,Wunderground v.1.15,2013-02-09 21:50:00,
2013-02-09 16:55:00,13.5,7.9,30.04,NNW,339,3.0,4.0,78,0.00,,,0.00,Wunderground v.1.15,2013-02-09 21:55:00,
2013-02-09 17:05:00,13.6,8.0,30.05,WNW,284,2.0,3.0,78,0.00,,,0.00,Wunderground v.1.15,2013-02-09 22:05:00,
2013-02-09 17:10:00,13.7,8.1,30.04,SSE,149,2.0,6.0,78,0.00,,,0.00,Wunderground v.1.15,2013-02-09 22:10:00,
2013-02-09 17:15:00,13.6,8.0,30.05,North,359,3.0,6.0,78,0.00,,,0.00,Wunderground v.1.15,2013-02-09 22:15:00,
2013-02-09 17:25:00,13.5,7.3,30.05,SSE,149,3.0,6.0,76,0.00,,,0.00,Wunderground v.1.15,2013-02-09 22:25:00,
2013-02-09 17:30:00,13.4,8.1,30.06,SSE,158,3.0,3.0,79,0.00,,,0.00,Wunderground v.1.15,2013-02-09 22:30:00,
2013-02-09 17:40:00,13.4,7.5,30.06,West,280,3.0,3.0,77,0.00,,,0.00,Wunderground v.1.15,2013-02-09 22:40:00,
2013-02-09 17:45:00,13.4,7.5,30.07,South,170,2.0,3.0,77,0.00,,,0.00,Wunderground v.1.15,2013-02-09 22:45:00,
2013-02-09 17:55:00,13.5,7.6,30.08,SSE,159,3.0,3.0,77,0.00,,,0.00,Wunderground v.1.15,2013-02-09 22:55:00,
2013-02-09 18:00:00,13.5,7.3,30.08,SE,129,3.0,3.0,76,0.00,,,0.00,Wunderground v.1.15,2013-02-09 23:00:00,
2013-02-09 18:10:00,13.5,7.6,30.08,SE,130,2.0,2.0,77,0.00,,,0.00,Wunderground v.1.15,2013-02-09 23:10:00,
2013-02-09 18:15:00,13.4,7.0,30.08,South,187,2.0,3.0,75,0.00,,,0.00,Wunderground v.1.15,2013-02-09 23:15:00,
2013-02-09 18:25:00,13.7,6.6,30.08,SW,236,6.0,7.0,73,0.00,,,0.00,Wunderground v.1.15,2013-02-09 23:25:00,
2013-02-09 18:30:00,13.8,7.3,30.09,NW,320,6.0,7.0,75,0.00,,,0.00,Wunderground v.1.15,2013-02-09 23:30:00,
2013-02-09 18:40:00,13.9,6.8,30.08,NW,321,4.0,11.0,73,0.00,,,0.00,Wunderground v.1.15,2013-02-09 23:40:00,
2013-02-09 18:45:00,13.8,6.7,30.08,SE,125,4.0,11.0,73,0.00,,,0.00,Wunderground v.1.15,2013-02-09 23:45:00,
2013-02-09 18:55:00,13.5,6.1,30.08,South,174,7.0,7.0,72,0.00,,,0.00,Wunderground v.1.15,2013-02-09 23:55:00,
2013-02-09 19:00:00,13.4,6.4,30.09,WNW,298,7.0,7.0,73,0.00,,,0.00,Wunderground v.1.15,2013-02-10 00:00:00,
2013-02-09 19:10:00,13.4,6.1,30.10,NNW,337,8.0,11.0,72,0.00,,,0.00,Wunderground v.1.15,2013-02-10 00:10:00,
2013-02-09 19:15:00,13.4,5.4,30.10,NW,322,10.0,11.0,70,0.00,,,0.00,Wunderground v.1.15,2013-02-10 00:15:00,
2013-02-09 19:20:00,13.4,5.4,30.11,NW,323,10.0,10.0,70,0.00,,,0.00,Wunderground v.1.15,2013-02-10 00:20:00,
2013-02-09 19:30:00,13.6,5.3,30.11,NW,315,8.0,8.0,69,0.00,,,0.00,Wunderground v.1.15,2013-02-10 00:30:00,
2013-02-09 19:35:00,13.5,5.8,30.11,NW,316,8.0,8.0,71,0.00,,,0.00,Wunderground v.1.15,2013-02-10 00:35:00,
2013-02-09 19:45:00,13.5,5.5,30.12,WNW,300,7.0,18.0,70,0.00,,,0.00,Wunderground v.1.15,2013-02-10 00:45:00,
2013-02-09 19:50:00,13.4,5.7,30.12,WNW,291,8.0,8.0,71,0.00,,,0.00,Wunderground v.1.15,2013-02-10 00:50:00,
2013-02-09 19:55:00,13.4,4.8,30.11,NNW,343,8.0,8.0,68,0.00,,,0.00,Wunderground v.1.15,2013-02-10 00:55:00,
2013-02-09 20:05:00,13.4,4.8,30.12,NW,315,7.0,11.0,68,0.00,,,0.00,Wunderground v.1.15,2013-02-10 01:05:00,
2013-02-09 20:15:00,13.7,4.4,30.11,NW,326,9.0,9.0,66,0.00,,,0.00,Wunderground v.1.15,2013-02-10 01:15:00,
2013-02-09 20:20:00,13.7,4.1,30.12,NNW,345,9.0,9.0,65,0.00,,,0.00,Wunderground v.1.15,2013-02-10 01:20:00,
2013-02-09 20:25:00,13.7,4.4,30.12,NNW,328,8.0,9.0,66,0.00,,,0.00,Wunderground v.1.15,2013-02-10 01:25:00,
2013-02-09 20:35:00,13.7,4.1,30.13,NNE,23,8.0,9.0,65,0.00,,,0.00,Wunderground v.1.15,2013-02-10 01:35:00,
2013-02-09 20:40:00,13.5,4.2,30.13,NW,314,7.0,7.0,66,0.00,,,0.00,Wunderground v.1.15,2013-02-10 01:40:00,
2013-02-09 20:50:00,13.5,3.9,30.13,WNW,302,8.0,9.0,65,0.00,,,0.00,Wunderground v.1.15,2013-02-10 01:50:00,
2013-02-09 20:55:00,13.4,3.8,30.14,NW,304,7.0,9.0,65,0.00,,,0.00,Wunderground v.1.15,2013-02-10 01:55:00,
2013-02-09 21:05:00,13.5,3.9,30.14,West,275,6.0,6.0,65,0.00,,,0.00,Wunderground v.1.15,2013-02-10 02:05:00,
2013-02-09 21:10:00,13.4,3.8,30.14,North,360,5.0,5.0,65,0.00,,,0.00,Wunderground v.1.15,2013-02-10 02:10:00,
2013-02-09 21:20:00,13.4,3.8,30.15,SW,236,4.0,4.0,65,0.00,,,0.00,Wunderground v.1.15,2013-02-10 02:20:00,
2013-02-09 21:25:00,13.2,3.6,30.15,WNW,291,3.0,7.0,65,0.00,,,0.00,Wunderground v.1.15,2013-02-10 02:25:00,
2013-02-09 21:35:00,13.2,3.3,30.16,SSE,167,3.0,3.0,64,0.00,,,0.00,Wunderground v.1.15,2013-02-10 02:35:00,
2013-02-09 21:40:00,13.0,3.4,30.15,NNE,16,3.0,3.0,65,0.00,,,0.00,Wunderground v.1.15,2013-02-10 02:40:00,
2013-02-09 21:45:00,13.0,3.1,30.15,SW,236,3.0,3.0,64,0.00,,,0.00,Wunderground v.1.15,2013-02-10 02:45:00,
2013-02-09 21:55:00,13.0,3.4,30.16,North,3,4.0,5.0,65,0.00,,,0.00,Wunderground v.1.15,2013-02-10 02:55:00,
2013-02-09 22:00:00,12.9,3.3,30.16,NNE,13,3.0,3.0,65,0.00,,,0.00,Wunderground v.1.15,2013-02-10 03:00:00,
2013-02-09 22:10:00,12.7,3.1,30.16,North,354,3.0,3.0,65,0.00,,,0.00,Wunderground v.1.15,2013-02-10 03:10:00,
2013-02-09 22:20:00,12.8,3.2,30.16,SSW,197,2.0,2.0,65,0.00,,,0.00,Wunderground v.1.15,2013-02-10 03:20:00,
2013-02-09 22:25:00,12.8,2.9,30.16,ESE,114,3.0,3.0,64,0.00,,,0.00,Wunderground v.1.15,2013-02-10 03:25:00,
2013-02-09 22:30:00,12.7,3.1,30.16,West,269,2.0,2.0,65,0.00,,,0.00,Wunderground v.1.15,2013-02-10 03:30:00,
2013-02-09 22:40:00,12.8,2.9,30.17,WSW,246,3.0,3.0,64,0.00,,,0.00,Wunderground v.1.15,2013-02-10 03:40:00,
2013-02-09 22:45:00,13.0,3.1,30.17,South,169,5.0,5.0,64,0.00,,,0.00,Wunderground v.1.15,2013-02-10 03:45:00,
2013-02-09 22:55:00,13.0,3.1,30.17,NW,322,3.0,4.0,64,0.00,,,0.00,Wunderground v.1.15,2013-02-10 03:55:00,
2013-02-09 23:00:00,12.8,2.9,30.17,SSE,162,4.0,4.0,64,0.00,,,0.00,Wunderground v.1.15,2013-02-10 04:00:00,
2013-02-09 23:10:00,12.5,2.6,30.17,SSE,166,3.0,3.0,64,0.00,,,0.00,Wunderground v.1.15,2013-02-10 04:10:00,
2013-02-09 23:15:00,12.4,1.5,30.17,North,11,3.0,5.0,61,0.00,,,0.00,Wunderground v.1.15,2013-02-10 04:15:00,
2013-02-09 23:25:00,12.4,1.1,30.18,North,349,6.0,7.0,60,0.00,,,0.00,Wunderground v.1.15,2013-02-10 04:25:00,
2013-02-09 23:30:00,12.3,0.7,30.18,NNW,338,7.0,7.0,59,0.00,,,0.00,Wunderground v.1.15,2013-02-10 04:30:00,
2013-02-09 23:40:00,12.1,0.9,30.18,NNW,337,7.0,8.0,60,0.00,,,0.00,Wunderground v.1.15,2013-02-10 04:40:00,
2013-02-09 23:45:00,12.0,0.8,30.19,South,180,5.0,8.0,60,0.00,,,0.00,Wunderground v.1.15,2013-02-10 04:45:00,
2013-02-09 23:55:00,11.8,0.9,30.19,West,269,4.0,5.0,61,0.00,,,0.00,Wunderground v.1.15,2013-02-10 04:55:00,